Time;durP1;ratioP1;P1;durP2;ratioP2;P2;SDS_P1;SDS_P2;PMS_P1;PMS_P2;Temp;Humidity;BMP_temperature;BMP_pressure;BME280_temperature;BME280_humidity;BME280_pressure;Samples;Min_cycle;Max_cycle;Signal;HPM_P1;HPM_P2
2023/04/13 00:02:12;;;;;;;1.83;0.20;;;6.40;99.90;;;;;;5031543;28;20048;-90
2023/04/13 00:04:37;;;;;;;0.40;0.10;;;6.40;99.90;;;;;;5034634;28;20037;-89
2023/04/13 00:07:03;;;;;;;0.88;0.10;;;6.40;99.90;;;;;;5032374;28;20036;-90
2023/04/13 00:09:32;;;;;;;0.38;0.10;;;6.40;99.90;;;;;;5032026;28;20033;-91
2023/04/13 00:11:58;;;;;;;1.13;0.10;;;6.50;99.90;;;;;;5034651;28;20101;-90
2023/04/13 00:14:32;;;;;;;0.60;0.10;;;6.40;99.90;;;;;;5032513;28;20500;-91
2023/04/13 00:16:58;;;;;;;0.30;0.10;;;6.60;99.90;;;;;;5033432;28;20055;-83
2023/04/13 00:19:24;;;;;;;1.15;0.10;;;6.50;99.90;;;;;;5047514;28;20054;-86
2023/04/13 00:21:52;;;;;;;0.98;0.10;;;6.50;99.90;;;;;;5033519;28;20025;-86
2023/04/13 00:24:18;;;;;;;1.35;0.10;;;6.50;99.90;;;;;;5033221;28;20044;-87
2023/04/13 00:26:45;;;;;;;1.42;0.10;;;6.50;99.90;;;;;;5032797;28;20043;-83
2023/04/13 00:29:11;;;;;;;1.13;0.10;;;6.50;99.90;;;;;;5032605;28;20119;-90
2023/04/13 00:31:36;;;;;;;1.50;0.10;;;6.50;99.90;;;;;;5034676;28;20048;-85
2023/04/13 00:34:03;;;;;;;2.15;0.10;;;6.60;99.90;;;;;;5032921;28;20182;-83
2023/04/13 00:36:28;;;;;;;0.95;0.10;;;6.60;99.90;;;;;;5051268;28;20484;-84
2023/04/13 00:38:56;;;;;;;1.10;0.20;;;6.60;99.90;;;;;;5032987;28;20028;-84
2023/04/13 00:41:23;;;;;;;0.75;0.10;;;6.50;99.90;;;;;;5030458;28;20070;-84
2023/04/13 00:43:51;;;;;;;0.60;0.10;;;6.50;99.90;;;;;;5033579;28;20089;-86
2023/04/13 00:46:18;;;;;;;1.85;0.10;;;6.50;99.90;;;;;;5031052;28;20029;-87
2023/04/13 00:48:44;;;;;;;0.80;0.10;;;6.50;99.90;;;;;;5032456;28;20170;-88
2023/04/13 00:51:12;;;;;;;1.27;0.10;;;6.50;99.90;;;;;;5025698;28;20028;-88
2023/04/13 00:53:39;;;;;;;1.08;0.10;;;6.50;99.90;;;;;;5032341;28;20024;-90
2023/04/13 00:56:05;;;;;;;0.95;0.10;;;6.50;99.90;;;;;;5033580;28;20256;-88
2023/04/13 00:58:32;;;;;;;1.30;0.20;;;6.50;99.90;;;;;;5031484;28;20137;-88
2023/04/13 01:00:57;;;;;;;0.70;0.10;;;6.50;99.90;;;;;;5032859;28;20048;-91
2023/04/13 01:03:24;;;;;;;0.70;0.10;;;6.50;99.90;;;;;;5031690;28;20143;-88
2023/04/13 01:06:12;;;;;;;2.45;0.10;;;6.40;99.90;;;;;;5030497;28;20032;-85
2023/04/13 01:08:46;;;;;;;0.32;0.10;;;6.40;99.90;;;;;;5062104;28;20131;-84
2023/04/13 01:11:20;;;;;;;0.63;0.10;;;6.40;99.90;;;;;;5045763;28;20106;-83
2023/04/13 01:13:55;;;;;;;3.65;0.20;;;6.40;99.90;;;;;;5030340;28;20240;-84
2023/04/13 01:16:31;;;;;;;1.00;0.15;;;6.40;99.90;;;;;;5033551;28;20473;-89
2023/04/13 01:18:58;;;;;;;1.48;0.10;;;6.40;99.90;;;;;;5030356;28;20036;-89
2023/04/13 01:21:28;;;;;;;1.38;0.20;;;6.40;99.90;;;;;;5031244;28;20056;-89
2023/04/13 01:24:05;;;;;;;1.05;0.10;;;6.40;99.90;;;;;;5049108;28;20037;-88
2023/04/13 01:26:57;;;;;;;1.20;0.10;;;6.40;99.90;;;;;;5030794;28;20514;-87
2023/04/13 01:29:25;;;;;;;2.20;0.10;;;6.50;99.90;;;;;;5029084;28;20025;-87
2023/04/13 01:31:53;;;;;;;0.40;0.10;;;6.50;99.90;;;;;;5030710;28;20033;-86
2023/04/13 01:34:20;;;;;;;1.15;0.10;;;6.50;99.90;;;;;;5031144;28;20025;-88
2023/04/13 01:36:46;;;;;;;1.17;0.20;;;6.50;99.90;;;;;;5045823;28;20033;-86
2023/04/13 01:39:19;;;;;;;1.73;0.20;;;6.50;99.90;;;;;;5029134;28;20030;-87
2023/04/13 01:41:45;;;;;;;1.35;0.10;;;6.50;99.90;;;;;;5031902;28;20024;-88
2023/04/13 01:44:12;;;;;;;2.80;0.10;;;6.50;99.90;;;;;;5030126;28;20033;-84
2023/04/13 01:46:45;;;;;;;1.50;0.25;;;6.50;99.90;;;;;;5032113;28;20016;-87
2023/04/13 01:49:34;;;;;;;1.63;0.10;;;6.50;99.90;;;;;;5073746;28;20029;-83
2023/04/13 01:52:11;;;;;;;1.15;0.10;;;6.50;99.90;;;;;;5029613;28;20032;-89
2023/04/13 01:54:39;;;;;;;0.90;0.10;;;6.60;99.90;;;;;;5041106;28;20016;-89
2023/04/13 01:57:06;;;;;;;1.50;0.20;;;6.60;99.90;;;;;;5045330;28;20501;-81
2023/04/13 01:59:34;;;;;;;2.08;0.10;;;6.60;99.90;;;;;;5036716;28;20031;-90
2023/04/13 02:02:00;;;;;;;1.02;0.20;;;6.60;99.90;;;;;;5034763;28;20031;-83
2023/04/13 02:04:25;;;;;;;1.17;0.10;;;6.70;99.90;;;;;;5049564;28;20119;-88
2023/04/13 02:06:51;;;;;;;0.70;0.10;;;6.70;99.90;;;;;;5035660;28;20025;-86
2023/04/13 02:09:22;;;;;;;1.77;0.20;;;6.70;99.90;;;;;;5049577;28;20020;-83
2023/04/13 02:11:52;;;;;;;2.42;0.20;;;6.70;99.90;;;;;;5034806;28;20038;-88
2023/04/13 02:14:17;;;;;;;2.13;0.20;;;6.70;99.90;;;;;;5067970;28;20485;-86
2023/04/13 02:16:43;;;;;;;2.40;0.20;;;6.70;99.90;;;;;;5036171;28;20032;-86
2023/04/13 02:19:12;;;;;;;2.78;0.20;;;6.60;99.90;;;;;;5036351;28;20060;-84
2023/04/13 02:21:38;;;;;;;2.70;0.20;;;6.70;99.90;;;;;;5035847;28;20021;-87
2023/04/13 02:24:04;;;;;;;1.50;0.20;;;6.70;99.90;;;;;;5036013;28;20029;-84
2023/04/13 02:26:30;;;;;;;1.42;0.20;;;6.60;99.90;;;;;;5036441;28;20033;-88
2023/04/13 02:28:56;;;;;;;1.95;0.20;;;6.70;99.90;;;;;;5036421;28;21916;-90
2023/04/13 02:31:22;;;;;;;1.45;0.20;;;6.60;99.90;;;;;;5034992;28;20384;-89
2023/04/13 02:33:48;;;;;;;1.15;0.30;;;6.70;99.90;;;;;;5048049;28;20036;-86
2023/04/13 02:36:16;;;;;;;1.15;0.10;;;6.70;99.90;;;;;;5034681;28;20025;-83
2023/04/13 02:38:53;;;;;;;1.42;0.10;;;6.70;99.90;;;;;;5033617;28;20036;-88
2023/04/13 02:41:29;;;;;;;1.23;0.20;;;6.70;99.90;;;;;;5035475;28;20119;-87
2023/04/13 02:43:55;;;;;;;2.55;0.20;;;6.70;99.90;;;;;;5047114;28;20519;-89
2023/04/13 02:46:23;;;;;;;1.27;0.20;;;6.70;99.90;;;;;;5032966;28;20385;-90
2023/04/13 02:48:55;;;;;;;3.47;0.28;;;6.70;99.90;;;;;;5050362;28;20039;-91
2023/04/13 02:51:21;;;;;;;0.88;0.10;;;6.70;99.90;;;;;;5036203;28;20028;-89
2023/04/13 02:53:47;;;;;;;1.88;0.10;;;6.70;99.90;;;;;;5029816;28;20508;-90
2023/04/13 02:56:13;;;;;;;1.35;0.10;;;6.70;99.90;;;;;;5035444;28;20029;-89
2023/04/13 02:58:40;;;;;;;1.25;0.10;;;6.70;99.90;;;;;;5036194;28;20036;-88
2023/04/13 03:01:12;;;;;;;1.55;0.15;;;6.70;99.90;;;;;;5034815;28;20499;-94
2023/04/13 03:03:40;;;;;;;1.05;0.10;;;6.60;99.90;;;;;;5048307;28;20485;-88
2023/04/13 03:06:06;;;;;;;0.68;0.20;;;6.60;99.90;;;;;;5053790;28;20127;-89
2023/04/13 03:08:43;;;;;;;1.50;0.15;;;6.70;99.90;;;;;;5035464;28;20503;-85
2023/04/13 03:11:15;;;;;;;1.73;0.20;;;6.60;99.90;;;;;;5048250;28;20460;-91
2023/04/13 03:13:48;;;;;;;2.42;0.20;;;6.60;99.90;;;;;;5051548;28;20029;-89
2023/04/13 03:16:16;;;;;;;0.95;0.20;;;6.60;99.90;;;;;;5052126;28;20377;-88
2023/04/13 03:18:44;;;;;;;1.23;0.20;;;6.60;99.90;;;;;;5049234;28;20044;-89
2023/04/13 03:21:11;;;;;;;0.73;0.10;;;6.50;99.90;;;;;;5052324;28;20085;-88
2023/04/13 03:23:44;;;;;;;0.70;0.10;;;6.40;99.90;;;;;;5034003;28;20055;-89
2023/04/13 03:26:12;;;;;;;2.13;0.20;;;6.50;99.90;;;;;;5033663;28;20181;-89
2023/04/13 03:28:38;;;;;;;1.38;0.10;;;6.40;99.90;;;;;;5048901;28;20117;-87
2023/04/13 03:31:04;;;;;;;1.33;0.10;;;6.40;99.90;;;;;;5034610;28;20044;-90
2023/04/13 03:33:33;;;;;;;1.27;0.15;;;6.30;99.90;;;;;;5035504;28;20122;-89
2023/04/13 03:36:02;;;;;;;1.42;0.15;;;6.30;99.90;;;;;;5033178;28;20036;-88
2023/04/13 03:38:32;;;;;;;1.10;0.20;;;6.30;99.90;;;;;;5034915;28;20032;-90
2023/04/13 03:40:58;;;;;;;1.83;0.28;;;6.30;99.90;;;;;;5034446;28;20161;-88
2023/04/13 03:43:26;;;;;;;0.90;0.20;;;6.20;99.90;;;;;;5034850;28;20036;-90
2023/04/13 03:46:00;;;;;;;2.50;0.20;;;6.20;99.90;;;;;;5034679;28;20351;-89
2023/04/13 03:48:26;;;;;;;1.33;0.10;;;6.10;99.90;;;;;;5052028;28;20024;-89
2023/04/13 03:50:52;;;;;;;0.60;0.10;;;6.10;99.90;;;;;;5032941;28;20035;-89
2023/04/13 03:53:23;;;;;;;1.95;0.20;;;6.00;99.90;;;;;;5034257;28;20128;-88
2023/04/13 03:55:53;;;;;;;2.38;0.40;;;6.00;99.90;;;;;;5034520;28;20036;-88
2023/04/13 03:58:19;;;;;;;2.75;0.35;;;6.00;99.90;;;;;;5064831;28;20048;-86
2023/04/13 04:00:45;;;;;;;1.48;0.30;;;6.00;99.90;;;;;;5046474;28;20105;-90
2023/04/13 04:03:18;;;;;;;1.25;0.20;;;6.00;99.90;;;;;;5033476;28;20041;-91
2023/04/13 04:05:54;;;;;;;1.33;0.20;;;5.90;99.90;;;;;;5045235;28;20095;-93
2023/04/13 04:08:21;;;;;;;1.73;0.28;;;5.80;99.90;;;;;;5051131;28;20493;-89
2023/04/13 04:10:47;;;;;;;3.38;0.40;;;5.80;99.90;;;;;;5034654;28;20029;-88
2023/04/13 04:13:15;;;;;;;1.88;0.40;;;5.80;99.90;;;;;;5029766;28;20040;-86
2023/04/13 04:15:45;;;;;;;;;;;5.80;99.90;;;;;;5033315;28;20032;-85
2023/04/13 04:18:11;;;;;;;2.28;0.30;;;5.80;99.90;;;;;;5030927;28;19917;-89
2023/04/13 04:20:38;;;;;;;1.48;0.20;;;5.70;99.90;;;;;;5034755;28;20025;-88
2023/04/13 04:23:04;;;;;;;1.77;0.30;;;5.70;99.90;;;;;;5033943;28;20040;-90
2023/04/13 04:25:38;;;;;;;2.15;0.30;;;5.70;99.90;;;;;;5029972;28;20020;-89
2023/04/13 04:28:05;;;;;;;0.82;0.20;;;5.70;99.90;;;;;;5032633;28;20066;-88
2023/04/13 04:30:32;;;;;;;1.73;0.30;;;5.60;99.90;;;;;;5048645;28;20369;-88
2023/04/13 04:33:00;;;;;;;1.20;0.30;;;5.70;99.90;;;;;;5033043;28;20036;-89
2023/04/13 04:35:33;;;;;;;2.47;0.45;;;5.70;99.90;;;;;;5031599;28;20028;-84
2023/04/13 04:38:03;;;;;;;1.13;0.30;;;5.70;99.90;;;;;;5034563;28;20033;-89
2023/04/13 04:40:30;;;;;;;1.50;0.30;;;5.60;99.90;;;;;;5032029;28;20326;-86
2023/04/13 04:42:57;;;;;;;1.92;0.40;;;5.60;99.90;;;;;;5029537;28;20037;-83
2023/04/13 04:45:35;;;;;;;2.25;0.30;;;5.70;99.90;;;;;;5032882;28;20116;-88
2023/04/13 04:48:02;;;;;;;1.88;0.45;;;5.70;99.90;;;;;;5029443;28;20033;-85
2023/04/13 04:50:29;;;;;;;4.45;0.40;;;5.80;99.90;;;;;;5048109;28;20028;-88
2023/04/13 04:53:06;;;;;;;2.28;0.50;;;5.80;99.90;;;;;;5047046;28;20090;-88
2023/04/13 04:55:32;;;;;;;4.45;0.80;;;5.80;99.90;;;;;;5047346;28;20020;-90
2023/04/13 04:57:58;;;;;;;2.05;0.50;;;5.90;99.90;;;;;;5019558;28;20050;-89
2023/04/13 05:00:25;;;;;;;4.03;0.52;;;5.80;99.90;;;;;;5011471;28;20026;-90
2023/04/13 05:03:00;;;;;;;3.28;0.60;;;5.80;99.90;;;;;;5006358;28;20029;-87
2023/04/13 05:05:29;;;;;;;4.38;0.60;;;5.80;99.90;;;;;;5008373;28;20113;-85
2023/04/13 05:07:55;;;;;;;2.85;0.50;;;5.90;99.90;;;;;;5011297;28;20109;-93
2023/04/13 05:10:23;;;;;;;2.50;0.50;;;5.80;99.90;;;;;;5010892;28;20478;-90
2023/04/13 05:12:54;;;;;;;2.90;0.50;;;6.00;99.90;;;;;;5006344;28;20475;-91
2023/04/13 05:15:21;;;;;;;2.20;0.60;;;6.00;99.90;;;;;;5010369;28;20024;-91
2023/04/13 05:17:49;;;;;;;1.65;0.40;;;6.10;99.90;;;;;;5010634;28;20120;-88
2023/04/13 05:20:16;;;;;;;4.20;0.82;;;6.10;99.90;;;;;;5039195;28;20025;-89
2023/04/13 05:23:00;;;;;;;4.60;0.90;;;6.30;99.90;;;;;;5027574;28;20034;-90
2023/04/13 05:25:26;;;;;;;3.70;0.80;;;6.20;99.90;;;;;;4979864;28;20055;-90
2023/04/13 05:27:53;;;;;;;4.60;1.00;;;6.30;99.90;;;;;;4997484;28;20435;-90
2023/04/13 05:30:20;;;;;;;4.57;0.70;;;6.40;99.90;;;;;;4996041;28;20486;-87
2023/04/13 05:32:46;;;;;;;2.00;0.70;;;6.40;99.90;;;;;;5007228;28;20033;-89
2023/04/13 05:35:12;;;;;;;2.47;1.02;;;6.40;99.90;;;;;;5014480;28;20487;-86
2023/04/13 05:37:39;;;;;;;4.88;1.70;;;6.50;99.90;;;;;;5018242;28;20529;-83
2023/04/13 05:40:12;;;;;;;5.72;1.92;;;6.50;99.90;;;;;;5000291;28;20042;-86
2023/04/13 05:42:40;;;;;;;;;;;6.60;99.90;;;;;;5015105;28;20544;-89
2023/04/13 05:45:08;;;;;;;4.80;1.13;;;6.60;99.90;;;;;;5015240;28;19913;-89
2023/04/13 05:47:37;;;;;;;3.53;1.23;;;6.60;99.90;;;;;;5015796;28;20061;-87
2023/04/13 05:50:16;;;;;;;6.18;1.85;;;6.70;99.90;;;;;;5000867;28;20041;-91
2023/04/13 05:52:42;;;;;;;5.65;1.75;;;6.70;99.90;;;;;;4999598;28;20045;-85
2023/04/13 05:55:08;;;;;;;4.70;1.80;;;6.70;99.90;;;;;;4997083;28;20029;-88
2023/04/13 05:57:35;;;;;;;6.45;1.50;;;6.70;99.90;;;;;;5022133;28;20083;-86
2023/04/13 06:00:07;;;;;;;;;;;6.70;99.90;;;;;;5035786;28;20037;-90
2023/04/13 06:02:42;;;;;;;5.88;1.35;;;6.70;99.90;;;;;;5035530;28;19928;-84
2023/04/13 06:05:13;;;;;;;3.53;0.95;;;6.80;99.90;;;;;;5017603;28;20048;-88
2023/04/13 06:07:42;;;;;;;4.53;1.13;;;6.90;99.90;;;;;;5017790;28;20920;-88
2023/04/13 06:10:09;;;;;;;3.70;1.02;;;7.00;99.90;;;;;;5018812;28;20621;-90
2023/04/13 06:12:34;;;;;;;4.10;1.05;;;7.00;99.90;;;;;;5035212;28;20055;-87
2023/04/13 06:15:00;;;;;;;3.55;1.00;;;7.10;99.90;;;;;;5035092;28;20037;-91
2023/04/13 06:17:26;;;;;;;5.13;1.58;;;7.20;99.90;;;;;;5019624;28;20033;-85
2023/04/13 06:19:53;;;;;;;5.22;0.60;;;7.30;99.90;;;;;;5036183;28;20044;-91
2023/04/13 06:22:19;;;;;;;4.65;1.02;;;7.40;99.90;;;;;;5036631;28;20040;-84
2023/04/13 06:24:45;;;;;;;3.92;1.35;;;7.30;99.90;;;;;;5014152;28;20080;-84
2023/04/13 06:27:11;;;;;;;5.43;1.13;;;7.30;99.90;;;;;;5018897;28;20590;-84
2023/04/13 06:29:40;;;;;;;3.00;0.93;;;7.30;99.90;;;;;;5018648;28;20100;-88
2023/04/13 06:32:09;;;;;;;5.35;1.30;;;7.20;99.90;;;;;;5018289;28;20132;-87
2023/04/13 06:34:34;;;;;;;4.13;1.70;;;7.20;99.90;;;;;;5017081;28;20033;-91
2023/04/13 06:37:01;;;;;;;4.97;1.83;;;7.30;99.90;;;;;;5034576;28;20094;-89
2023/04/13 06:39:36;;;;;;;5.20;2.22;;;7.40;99.90;;;;;;5018132;28;20033;-89
2023/04/13 06:42:03;;;;;;;3.83;1.80;;;7.50;99.90;;;;;;5019080;28;20091;-91
2023/04/13 06:44:58;;;;;;;5.88;2.47;;;7.50;99.90;;;;;;4965709;28;20189;-88
2023/04/13 06:47:27;;;;;;;7.38;2.75;;;7.40;99.90;;;;;;4954795;28;20041;-91
2023/04/13 06:49:54;;;;;;;6.65;2.80;;;7.30;99.90;;;;;;4953790;28;20136;-90
2023/04/13 06:52:21;;;;;;;4.05;1.95;;;7.30;99.90;;;;;;4948242;28;20571;-87
2023/04/13 06:54:47;;;;;;;6.28;2.22;;;7.20;99.90;;;;;;4949484;28;20038;-90
2023/04/13 06:57:29;;;;;;;6.05;2.45;;;7.20;99.90;;;;;;4986916;28;20064;-90
2023/04/13 06:59:55;;;;;;;4.28;2.38;;;7.20;99.90;;;;;;5015097;28;20045;-88
2023/04/13 07:02:21;;;;;;;3.47;1.73;;;7.20;99.90;;;;;;4993595;28;20046;-85
2023/04/13 07:04:48;;;;;;;6.30;2.38;;;7.20;99.90;;;;;;5014134;28;20061;-90
2023/04/13 07:07:14;;;;;;;4.28;1.73;;;7.10;99.90;;;;;;4999245;28;20043;-86
2023/04/13 07:09:43;;;;;;;4.90;1.52;;;7.10;99.90;;;;;;4993313;28;20772;-89
2023/04/13 07:12:10;;;;;;;3.92;1.02;;;6.90;99.90;;;;;;5017026;28;21252;-87
2023/04/13 07:14:37;;;;;;;2.28;0.60;;;6.90;99.90;;;;;;4997841;28;20182;-89
2023/04/13 07:17:04;;;;;;;2.83;0.88;;;6.90;99.90;;;;;;4999585;28;20029;-85
2023/04/13 07:19:32;;;;;;;1.92;0.80;;;6.80;99.90;;;;;;4999432;28;20033;-89
2023/04/13 07:22:00;;;;;;;3.28;0.65;;;6.80;99.90;;;;;;5009319;28;20053;-86
2023/04/13 07:24:27;;;;;;;1.80;0.75;;;6.90;99.90;;;;;;4997640;28;20490;-85
2023/04/13 07:26:57;;;;;;;4.88;2.17;;;6.90;99.90;;;;;;5005497;28;20418;-87
2023/04/13 07:29:23;;;;;;;6.40;2.70;;;6.90;99.90;;;;;;5006871;28;20029;-87
2023/04/13 07:32:00;;;;;;;3.88;1.88;;;6.80;99.90;;;;;;4994387;28;20119;-87
2023/04/13 07:34:27;;;;;;;4.18;1.48;;;6.90;99.90;;;;;;5013910;28;20029;-85
2023/04/13 07:36:53;;;;;;;4.78;1.45;;;7.00;99.90;;;;;;4991683;28;20037;-85
2023/04/13 07:39:21;;;;;;;3.30;0.88;;;7.10;99.90;;;;;;4991140;28;20143;-86
2023/04/13 07:41:48;;;;;;;2.75;0.90;;;7.20;99.90;;;;;;4997108;28;20040;-86
2023/04/13 07:44:19;;;;;;;2.70;1.10;;;7.20;99.90;;;;;;4997783;28;20070;-87
2023/04/13 07:46:46;;;;;;;2.63;0.82;;;7.20;99.90;;;;;;5013486;28;20107;-87
2023/04/13 07:49:11;;;;;;;3.10;0.93;;;7.20;99.90;;;;;;5009677;28;20033;-85
2023/04/13 07:51:39;;;;;;;5.03;1.35;;;7.20;99.90;;;;;;4998329;28;20083;-91
2023/04/13 07:54:05;;;;;;;4.20;0.90;;;7.20;99.90;;;;;;4990962;28;20041;-89
2023/04/13 07:56:34;;;;;;;3.83;0.80;;;7.30;99.90;;;;;;5004420;28;20441;-85
2023/04/13 07:59:01;;;;;;;3.85;0.70;;;7.40;99.90;;;;;;4997391;28;20128;-90
2023/04/13 08:01:27;;;;;;;2.75;1.10;;;7.50;99.90;;;;;;4992465;28;20120;-88
2023/04/13 08:03:54;;;;;;;2.03;0.70;;;7.60;99.90;;;;;;4992477;28;20145;-88
2023/04/13 08:06:23;;;;;;;3.13;0.65;;;7.80;99.90;;;;;;5006762;28;20413;-88
2023/04/13 08:08:50;;;;;;;2.88;0.65;;;7.90;99.90;;;;;;4997744;28;20041;-88
2023/04/13 08:11:16;;;;;;;3.50;0.60;;;8.00;99.90;;;;;;5014010;28;20025;-92
2023/04/13 08:13:44;;;;;;;2.80;0.80;;;8.20;99.90;;;;;;4997052;28;20140;-86
2023/04/13 08:16:10;;;;;;;3.33;1.23;;;8.40;99.90;;;;;;5011950;28;20029;-91
2023/04/13 08:18:37;;;;;;;2.15;0.80;;;8.50;99.90;;;;;;5013786;28;20489;-90
2023/04/13 08:21:09;;;;;;;2.72;0.95;;;8.60;99.90;;;;;;4991231;28;20025;-91
2023/04/13 08:23:39;;;;;;;4.50;1.10;;;8.50;99.90;;;;;;4997057;28;20041;-90
2023/04/13 08:26:05;;;;;;;2.47;0.90;;;8.70;99.90;;;;;;4990065;28;20056;-91
2023/04/13 08:28:31;;;;;;;3.25;1.20;;;8.80;99.90;;;;;;4995757;28;20037;-91
2023/04/13 08:30:57;;;;;;;2.80;0.90;;;8.70;99.90;;;;;;5029213;28;20356;-90
2023/04/13 08:33:23;;;;;;;2.85;0.88;;;8.90;99.90;;;;;;4997168;28;20036;-93
2023/04/13 08:35:48;;;;;;;4.22;1.25;;;9.00;99.90;;;;;;5002656;28;20038;-90
2023/04/13 08:38:15;;;;;;;4.35;0.73;;;9.00;99.90;;;;;;5007155;28;20029;-92
2023/04/13 08:40:47;;;;;;;2.55;0.63;;;9.10;99.90;;;;;;4997461;28;20033;-88
2023/04/13 08:43:17;;;;;;;;;;;9.20;99.90;;;;;;4991821;28;20422;-86
2023/04/13 08:45:43;;;;;;;5.25;0.82;;;9.20;99.90;;;;;;5010467;28;19965;-88
2023/04/13 08:48:10;;;;;;;4.50;0.95;;;9.50;99.90;;;;;;4997466;28;20033;-90
2023/04/13 08:50:38;;;;;;;4.30;0.93;;;9.60;99.90;;;;;;4989798;28;20048;-85
2023/04/13 08:53:07;;;;;;;7.47;0.90;;;9.60;99.90;;;;;;5013400;28;20032;-91
2023/04/13 08:55:33;;;;;;;6.47;0.73;;;9.50;99.90;;;;;;5011341;28;20081;-91
2023/04/13 08:58:01;;;;;;;3.72;0.60;;;9.60;99.90;;;;;;5012844;28;20517;-91
2023/04/13 09:00:28;;;;;;;5.93;1.02;;;9.50;99.90;;;;;;5011849;28;20060;-92
2023/04/13 09:03:01;;;;;;;8.57;0.60;;;9.40;99.90;;;;;;4996247;28;20464;-88
2023/04/13 09:05:29;;;;;;;6.00;0.60;;;9.40;99.90;;;;;;5014419;28;20247;-88
2023/04/13 09:08:02;;;;;;;6.45;0.70;;;9.20;99.90;;;;;;5003378;28;20041;-91
2023/04/13 09:10:28;;;;;;;10.18;0.98;;;9.30;99.90;;;;;;5001851;28;20033;-91
2023/04/13 09:12:54;;;;;;;7.82;0.95;;;9.20;99.90;;;;;;5019233;28;20067;-87
2023/04/13 09:15:22;;;;;;;10.20;0.98;;;9.20;99.90;;;;;;5002479;28;20342;-91
2023/04/13 09:18:08;;;;;;;5.28;0.60;;;9.40;99.90;;;;;;5006698;28;20216;-87
2023/04/13 09:20:35;;;;;;;;;;;9.40;99.90;;;;;;5002523;28;20038;-91
2023/04/13 09:23:18;;;;;;;9.45;1.15;;;9.50;99.90;;;;;;5010586;28;20427;-91
2023/04/13 09:25:44;;;;;;;6.47;0.40;;;9.50;99.90;;;;;;5000041;28;20383;-92
2023/04/13 09:28:18;;;;;;;8.20;1.25;;;9.70;99.90;;;;;;5020829;28;20591;-92
2023/04/13 09:30:45;;;;;;;4.75;0.47;;;9.80;99.90;;;;;;5018564;28;20037;-88
2023/04/13 09:33:12;;;;;;;3.03;0.50;;;9.80;99.90;;;;;;5019462;28;20377;-89
2023/04/13 09:35:38;;;;;;;7.50;0.50;;;9.80;99.90;;;;;;5018662;28;20045;-89
2023/04/13 09:38:05;;;;;;;10.35;0.40;;;9.80;99.90;;;;;;5015212;28;20057;-90
2023/04/13 09:40:31;;;;;;;7.35;0.40;;;9.80;99.90;;;;;;5003155;28;20099;-90
2023/04/13 09:43:02;;;;;;;7.88;0.32;;;9.90;99.90;;;;;;5003000;28;20524;-90
2023/04/13 09:45:35;;;;;;;7.65;0.50;;;9.90;99.90;;;;;;5001621;28;20149;-90
2023/04/13 09:48:17;;;;;;;8.18;0.90;;;10.40;99.90;;;;;;5019980;28;20048;-91
2023/04/13 09:50:43;;;;;;;4.95;0.45;;;10.30;99.90;;;;;;5001894;28;20777;-89
2023/04/13 09:53:11;;;;;;;5.65;0.60;;;10.10;99.90;;;;;;5001958;28;20047;-84
2023/04/13 09:55:38;;;;;;;7.47;0.40;;;10.00;99.90;;;;;;5017619;28;20029;-86
2023/04/13 09:58:11;;;;;;;5.10;0.50;;;10.00;99.90;;;;;;5001115;28;20054;-85
2023/04/13 10:00:38;;;;;;;8.27;0.50;;;10.00;99.90;;;;;;5017606;28;20033;-89
2023/04/13 10:03:09;;;;;;;9.70;0.90;;;10.00;99.90;;;;;;5000518;28;20034;-89
2023/04/13 10:05:36;;;;;;;5.57;0.30;;;10.10;99.90;;;;;;5016569;28;20033;-89
2023/04/13 10:08:03;;;;;;;15.10;0.60;;;10.40;99.90;;;;;;5001226;28;20061;-90
2023/04/13 10:10:29;;;;;;;7.25;0.70;;;10.20;99.90;;;;;;5003258;28;20083;-86
2023/04/13 10:13:00;;;;;;;3.95;0.80;;;10.20;99.90;;;;;;5004774;28;20088;-87
2023/04/13 10:16:01;;;;;;;7.68;0.38;;;10.20;99.90;;;;;;5019046;28;20493;-90
2023/04/13 10:18:59;;;;;;;5.45;0.40;;;10.00;99.90;;;;;;5008849;28;20045;-86
2023/04/13 10:21:35;;;;;;;5.25;0.40;;;10.00;99.90;;;;;;4998810;28;20032;-85
2023/04/13 10:24:10;;;;;;;4.47;0.40;;;10.00;99.90;;;;;;4996594;28;21045;-90
2023/04/13 10:26:40;;;;;;;6.72;0.40;;;10.00;99.90;;;;;;4991202;28;20950;-88
2023/04/13 10:29:07;;;;;;;8.13;0.50;;;10.30;99.90;;;;;;4992299;28;20053;-86
2023/04/13 10:31:46;;;;;;;5.95;0.55;;;10.80;99.90;;;;;;4997542;28;20040;-90
2023/04/13 10:34:27;;;;;;;8.98;0.70;;;11.50;99.90;;;;;;4997357;28;20071;-89
2023/04/13 10:37:03;;;;;;;6.07;0.60;;;11.80;99.90;;;;;;5016161;28;20034;-88
2023/04/13 10:39:35;;;;;;;9.90;0.90;;;12.30;99.90;;;;;;5014156;28;20548;-84
2023/04/13 10:42:06;;;;;;;11.82;1.13;;;11.80;99.90;;;;;;5013379;28;20130;-86
2023/04/13 10:44:52;;;;;;;5.43;0.40;;;12.30;99.90;;;;;;4998742;28;20497;-92
2023/04/13 10:47:20;;;;;;;6.70;0.50;;;12.30;99.90;;;;;;5013735;28;20038;-92
2023/04/13 10:49:47;;;;;;;7.65;0.40;;;12.10;99.90;;;;;;5014167;28;20030;-88
2023/04/13 10:52:14;;;;;;;10.05;0.75;;;11.60;99.90;;;;;;5013829;28;20075;-89
2023/04/13 10:54:41;;;;;;;6.68;0.60;;;11.60;99.90;;;;;;4995714;28;20128;-89
2023/04/13 10:57:09;;;;;;;6.22;0.50;;;11.80;99.90;;;;;;5017044;28;20041;-88
2023/04/13 10:59:53;;;;;;;5.10;0.40;;;12.00;99.90;;;;;;5035231;28;20145;-88
2023/04/13 11:02:19;;;;;;;4.80;0.47;;;11.80;99.90;;;;;;5035635;28;20024;-90
2023/04/13 11:04:48;;;;;;;7.43;0.73;;;11.80;99.90;;;;;;5017701;28;20045;-88
2023/04/13 11:07:18;;;;;;;4.43;0.40;;;12.40;99.90;;;;;;5019961;28;20033;-89
2023/04/13 11:09:49;;;;;;;5.97;0.30;;;12.50;99.90;;;;;;5037361;28;20485;-90
2023/04/13 11:12:16;;;;;;;5.32;0.60;;;12.40;99.90;;;;;;5021813;28;20037;-94
2023/04/13 11:14:46;;;;;;;3.45;0.40;;;12.50;99.90;;;;;;5016675;28;20227;-89
2023/04/13 11:17:17;;;;;;;4.80;0.30;;;13.00;99.90;;;;;;5017487;28;20102;-89
2023/04/13 11:19:47;;;;;;;8.85;0.95;;;12.50;99.90;;;;;;5016364;28;20486;-89
2023/04/13 11:22:37;;;;;;;3.00;0.30;;;12.10;99.90;;;;;;5017725;28;20047;-89
2023/04/13 11:25:13;;;;;;;5.55;0.40;;;12.30;99.90;;;;;;5033281;28;20052;-85
2023/04/13 11:27:40;;;;;;;8.07;0.50;;;11.50;99.90;;;;;;5006087;28;20079;-87
2023/04/13 11:30:07;;;;;;;7.63;0.85;;;11.10;99.90;;;;;;5016108;28;20032;-90
2023/04/13 11:32:41;;;;;;;8.13;0.50;;;11.30;99.90;;;;;;5018400;28;20409;-87
2023/04/13 11:35:13;;;;;;;10.00;0.50;;;11.50;99.90;;;;;;5017795;28;20040;-89
2023/04/13 11:37:45;;;;;;;10.40;0.50;;;11.30;99.90;;;;;;5019249;28;20059;-90
2023/04/13 11:40:16;;;;;;;9.23;0.47;;;11.20;99.90;;;;;;5018094;28;20036;-88
2023/04/13 11:42:45;;;;;;;4.82;0.43;;;11.50;99.90;;;;;;5037074;28;20132;-88
2023/04/13 11:45:12;;;;;;;6.68;0.47;;;11.30;99.90;;;;;;5018174;28;20182;-93
2023/04/13 11:47:38;;;;;;;7.72;0.65;;;10.90;99.90;;;;;;5020454;28;20036;-88
2023/04/13 11:50:05;;;;;;;6.65;0.30;;;10.90;99.90;;;;;;5016823;28;20033;-84
2023/04/13 11:52:32;;;;;;;5.28;0.70;;;11.40;99.90;;;;;;5017539;28;20028;-89
2023/04/13 11:54:59;;;;;;;6.30;0.40;;;11.20;99.90;;;;;;5032683;28;20435;-90
2023/04/13 11:57:27;;;;;;;5.22;0.40;;;11.00;99.90;;;;;;5028523;28;20084;-91
2023/04/13 11:59:54;;;;;;;9.48;0.50;;;11.70;99.90;;;;;;5007737;28;20033;-88
2023/04/13 12:02:27;;;;;;;8.02;0.45;;;12.00;99.90;;;;;;5026167;28;20454;-91
2023/04/13 12:04:53;;;;;;;5.88;0.40;;;12.40;99.90;;;;;;5012977;28;20585;-89
2023/04/13 12:07:19;;;;;;;5.70;0.70;;;12.30;99.90;;;;;;4997571;28;20033;-90
2023/04/13 12:09:47;;;;;;;3.47;0.30;;;12.80;99.90;;;;;;5008246;28;20034;-89
2023/04/13 12:12:21;;;;;;;6.15;0.40;;;12.50;99.90;;;;;;5012588;28;20060;-91
2023/04/13 12:14:56;;;;;;;5.70;0.60;;;12.50;99.90;;;;;;5012475;28;20643;-87
2023/04/13 12:17:30;;;;;;;2.97;0.30;;;12.80;99.90;;;;;;5008376;28;20078;-90
2023/04/13 12:19:56;;;;;;;4.85;0.50;;;12.90;99.90;;;;;;5013791;28;20067;-92
2023/04/13 12:22:22;;;;;;;2.35;0.20;;;13.70;99.90;;;;;;5023473;28;20041;-91
2023/04/13 12:24:48;;;;;;;6.95;0.35;;;13.70;99.90;;;;;;5024288;28;20044;-85
2023/04/13 12:27:14;;;;;;;4.13;0.52;;;13.50;99.90;;;;;;4986145;28;20052;-87
2023/04/13 12:29:40;;;;;;;4.57;0.30;;;13.00;99.90;;;;;;5024588;28;20470;-91
2023/04/13 12:32:13;;;;;;;4.97;0.40;;;12.30;99.90;;;;;;5013307;28;20037;-92
2023/04/13 12:34:42;;;;;;;3.85;0.30;;;12.50;99.90;;;;;;5011322;28;20257;-92
2023/04/13 12:37:09;;;;;;;6.10;0.43;;;13.20;99.90;;;;;;5012843;28;20025;-92
2023/04/13 12:39:36;;;;;;;3.15;0.30;;;13.40;99.90;;;;;;5012895;28;20629;-85
2023/04/13 12:42:01;;;;;;;3.20;0.20;;;13.70;99.90;;;;;;5021469;28;20048;-90
2023/04/13 12:44:27;;;;;;;4.78;0.30;;;13.50;99.90;;;;;;5022164;28;20053;-89
2023/04/13 12:46:53;;;;;;;3.45;0.55;;;13.90;99.90;;;;;;5007807;28;20041;-87
2023/04/13 12:49:19;;;;;;;8.05;0.40;;;13.80;99.90;;;;;;5022301;28;20139;-93
2023/04/13 12:51:45;;;;;;;3.92;0.50;;;13.50;99.90;;;;;;5013151;28;20071;-89
2023/04/13 12:54:12;;;;;;;7.97;0.40;;;13.10;99.90;;;;;;5013455;28;20124;-89
2023/04/13 12:56:39;;;;;;;6.43;0.47;;;12.80;99.90;;;;;;5005244;28;20054;-90
2023/04/13 12:59:05;;;;;;;4.00;0.40;;;12.60;99.90;;;;;;5042025;28;20047;-94
2023/04/13 13:01:35;;;;;;;6.22;0.50;;;12.50;99.90;;;;;;5019141;28;20041;-89
2023/04/13 13:04:01;;;;;;;5.53;0.47;;;12.40;99.90;;;;;;5034166;28;20066;-88
2023/04/13 13:06:26;;;;;;;7.68;0.35;;;12.80;99.90;;;;;;5023788;28;20033;-85